createdAt,value
2023-09-17T00:00:50.053Z,84
2023-09-17T00:02:51.581Z,84
2023-09-17T00:04:52.212Z,84
2023-09-17T00:06:50.901Z,84
2023-09-17T00:08:53.432Z,84
2023-09-17T00:12:47.720Z,84
2023-09-17T00:14:53.449Z,84
2023-09-17T00:16:53.203Z,84
2023-09-17T00:18:50.165Z,84
2023-09-17T00:20:48.866Z,84
2023-09-17T00:22:52.264Z,84
2023-09-17T00:26:53.406Z,84
2023-09-17T00:28:50.175Z,84
2023-09-17T00:30:53.360Z,84
2023-09-17T00:32:52.119Z,84
2023-09-17T00:36:56.484Z,84
2023-09-17T00:38:56.648Z,84
2023-09-17T00:42:56.401Z,84
2023-09-17T00:44:51.477Z,84
2023-09-17T00:46:48.769Z,84
2023-09-17T00:48:56.353Z,84
2023-09-17T00:50:51.695Z,84
2023-09-17T00:52:50.546Z,84
2023-09-17T00:54:51.863Z,84
2023-09-17T00:56:53.261Z,84
2023-09-17T00:58:51.509Z,84
2023-09-17T01:00:52.037Z,84
2023-09-17T01:02:51.906Z,84
2023-09-17T01:04:51.456Z,83
2023-09-17T01:06:52.439Z,84
2023-09-17T01:08:53.313Z,84
2023-09-17T01:10:50.626Z,84
2023-09-17T01:12:51.919Z,84
2023-09-17T01:18:51.761Z,84
2023-09-17T01:20:50.186Z,84
2023-09-17T01:22:50.995Z,84
2023-09-17T01:24:50.976Z,84
2023-09-17T01:26:50.130Z,84
2023-09-17T01:28:52.466Z,84
2023-09-17T01:30:52.360Z,84
2023-09-17T01:32:51.551Z,84
2023-09-17T01:34:51.310Z,84
2023-09-17T01:40:52.116Z,84
2023-09-17T01:42:50.179Z,84
2023-09-17T01:44:52.381Z,84
2023-09-17T01:46:50.217Z,84
2023-09-17T01:50:52.093Z,84
2023-09-17T01:52:50.256Z,84
2023-09-17T01:54:56.788Z,84
2023-09-17T01:56:52.552Z,84
2023-09-17T01:58:50.173Z,84
2023-09-17T02:00:56.666Z,84
2023-09-17T02:02:52.542Z,84
2023-09-17T02:04:50.196Z,84
2023-09-17T02:06:56.510Z,84
2023-09-17T02:10:52.261Z,84
2023-09-17T02:12:50.248Z,84
2023-09-17T02:14:53.392Z,84
2023-09-17T02:16:52.356Z,85
2023-09-17T02:18:52.336Z,85
2023-09-17T02:20:50.435Z,85
2023-09-17T02:24:52.301Z,84
2023-09-17T02:26:50.190Z,84
2023-09-17T02:28:47.963Z,85
2023-09-17T02:30:52.290Z,85
2023-09-17T02:32:50.592Z,85
2023-09-17T02:34:53.813Z,85
2023-09-17T02:42:53.443Z,84
2023-09-17T02:44:50.167Z,84
2023-09-17T02:50:53.376Z,84
2023-09-17T02:52:50.175Z,84
2023-09-17T02:54:51.361Z,84
2023-09-17T02:56:52.450Z,84
2023-09-17T02:58:50.279Z,84
2023-09-17T03:00:50.901Z,85
2023-09-17T03:02:52.737Z,84
2023-09-17T03:04:53.514Z,84
2023-09-17T03:06:50.736Z,84
2023-09-17T03:08:52.383Z,84
2023-09-17T03:10:51.489Z,83
2023-09-17T03:14:52.471Z,84
2023-09-17T03:16:50.325Z,84
2023-09-17T03:18:52.202Z,84
2023-09-17T03:20:56.593Z,84
2023-09-17T03:22:50.243Z,85
2023-09-17T03:25:03.648Z,85
2023-09-17T03:28:52.055Z,85
2023-09-17T03:30:51.128Z,86
2023-09-17T03:33:02.323Z,85
2023-09-17T03:34:56.473Z,85
2023-09-17T03:36:50.239Z,84
2023-09-17T03:40:50.231Z,85
2023-09-17T03:42:52.251Z,85
2023-09-17T03:44:50.190Z,85
2023-09-17T03:46:50.283Z,85
2023-09-17T03:48:56.371Z,85
2023-09-17T03:50:50.197Z,85
2023-09-17T03:52:53.123Z,85
2023-09-17T03:54:51.425Z,85
2023-09-17T03:56:53.342Z,85
2023-09-17T04:00:50.425Z,85
2023-09-17T04:04:53.375Z,85
2023-09-17T04:06:50.241Z,85
2023-09-17T04:08:50.123Z,84
2023-09-17T04:10:50.357Z,84
2023-09-17T04:14:53.410Z,85
2023-09-17T04:16:56.628Z,85
2023-09-17T04:18:52.039Z,85
2023-09-17T04:20:53.390Z,85
2023-09-17T04:22:50.476Z,85
2023-09-17T04:24:53.546Z,84
2023-09-17T04:26:50.171Z,84
2023-09-17T04:30:50.190Z,84
2023-09-17T04:32:56.897Z,85
2023-09-17T04:34:53.451Z,85
2023-09-17T04:36:50.357Z,85
2023-09-17T04:38:50.243Z,84
2023-09-17T04:40:50.293Z,84
2023-09-17T04:42:56.460Z,85
2023-09-17T04:44:50.254Z,85
2023-09-17T04:46:50.239Z,85
2023-09-17T04:48:50.442Z,85
2023-09-17T04:50:52.589Z,85
2023-09-17T04:52:50.226Z,85
2023-09-17T04:54:56.997Z,85
2023-09-17T04:56:50.225Z,85
2023-09-17T04:58:50.489Z,85
2023-09-17T05:00:50.187Z,85
2023-09-17T05:04:52.033Z,85
2023-09-17T05:06:50.435Z,85
2023-09-17T05:08:53.440Z,85
2023-09-17T05:10:53.071Z,85
2023-09-17T05:14:50.320Z,85
2023-09-17T05:16:50.197Z,85
2023-09-17T05:18:50.251Z,85
2023-09-17T05:20:50.168Z,85
2023-09-17T05:22:53.700Z,84
2023-09-17T05:24:50.232Z,84
2023-09-17T05:26:52.371Z,84
2023-09-17T05:28:50.315Z,84
2023-09-17T05:30:50.325Z,84
2023-09-17T05:34:53.563Z,84
2023-09-17T05:36:53.470Z,84
2023-09-17T05:40:50.299Z,84
2023-09-17T05:42:53.692Z,84
2023-09-17T05:46:53.226Z,85
2023-09-17T05:48:51.861Z,84
2023-09-17T05:50:59.732Z,84
2023-09-17T05:52:53.486Z,83
2023-09-17T05:54:50.302Z,83
2023-09-17T05:56:56.761Z,83
2023-09-17T05:58:50.219Z,83
2023-09-17T06:00:51.128Z,83
2023-09-17T06:02:50.326Z,83
2023-09-17T06:06:49.848Z,83
2023-09-17T06:08:49.772Z,83
2023-09-17T06:10:49.817Z,83
2023-09-17T06:12:53.267Z,83
2023-09-17T06:14:49.886Z,83
2023-09-17T06:16:58.279Z,82
2023-09-17T06:18:52.947Z,82
2023-09-17T06:20:52.871Z,81
2023-09-17T06:22:53.060Z,82
2023-09-17T06:24:53.197Z,82
2023-09-17T06:26:49.830Z,82
2023-09-17T06:28:53.864Z,82
2023-09-17T06:30:50.075Z,82
2023-09-17T06:32:49.866Z,82
2023-09-17T06:34:49.875Z,81
2023-09-17T06:36:53.049Z,81
2023-09-17T06:38:49.365Z,80
2023-09-17T06:40:53.508Z,80
2023-09-17T06:42:53.054Z,81
2023-09-17T06:44:53.040Z,81
2023-09-17T06:46:49.914Z,79
2023-09-17T06:48:49.818Z,80
2023-09-17T06:50:49.891Z,81
2023-09-17T06:52:53.130Z,80
2023-09-17T06:54:53.555Z,77
2023-09-17T06:56:50.348Z,76
2023-09-17T07:04:52.888Z,75
2023-09-17T07:06:49.841Z,75
2023-09-17T07:08:49.776Z,78
2023-09-17T07:10:49.875Z,78
2023-09-17T07:12:52.907Z,77
2023-09-17T07:14:49.862Z,77
2023-09-17T07:16:49.897Z,79
2023-09-17T07:18:49.870Z,78
2023-09-17T07:20:53.309Z,78
2023-09-17T07:24:49.857Z,76
2023-09-17T07:28:49.771Z,77
2023-09-17T07:30:49.986Z,76
2023-09-17T07:32:51.499Z,76
2023-09-17T07:34:53.241Z,76
2023-09-17T07:36:49.851Z,75
2023-09-17T07:38:49.861Z,75
2023-09-17T07:40:49.864Z,75
2023-09-17T07:42:50.600Z,75
2023-09-17T07:44:53.094Z,75
2023-09-17T07:46:54.163Z,75
2023-09-17T07:48:53.079Z,76
2023-09-17T07:50:49.898Z,75
2023-09-17T07:52:49.931Z,75
2023-09-17T07:54:49.841Z,75
2023-09-17T07:56:49.890Z,75
2023-09-17T07:58:49.371Z,76
2023-09-17T08:00:53.090Z,76
2023-09-17T08:04:49.835Z,76
2023-09-17T08:06:55.030Z,75
2023-09-17T08:08:49.792Z,75
2023-09-17T08:10:52.767Z,75
2023-09-17T08:12:51.572Z,75
2023-09-17T08:14:54.518Z,75
2023-09-17T08:18:54.347Z,74
2023-09-17T08:20:49.870Z,74
2023-09-17T08:22:55.761Z,74
2023-09-17T08:24:49.936Z,74
2023-09-17T08:26:49.846Z,73
2023-09-17T08:28:51.532Z,74
2023-09-17T08:30:49.473Z,74
2023-09-17T08:32:49.875Z,72
2023-09-17T08:34:49.099Z,73
2023-09-17T08:36:49.955Z,73
2023-09-17T08:40:49.893Z,73
2023-09-17T08:42:49.397Z,73
2023-09-17T08:44:54.249Z,73
2023-09-17T08:46:49.964Z,72
2023-09-17T08:48:50.677Z,72
2023-09-17T08:50:50.736Z,72
2023-09-17T08:52:47.993Z,71
2023-09-17T08:54:47.998Z,71
2023-09-17T08:56:49.422Z,71
2023-09-17T08:58:51.498Z,71
2023-09-17T09:00:55.287Z,72
2023-09-17T09:04:49.203Z,72
2023-09-17T09:06:49.330Z,72
2023-09-17T09:08:49.745Z,71
2023-09-17T09:10:55.900Z,72
2023-09-17T09:12:56.175Z,71
2023-09-17T09:14:53.381Z,70
2023-09-17T09:16:50.274Z,70
2023-09-17T09:18:56.227Z,70
2023-09-17T09:20:49.104Z,70
2023-09-17T09:22:49.417Z,70
2023-09-17T09:24:49.396Z,70
2023-09-17T09:26:52.892Z,69
2023-09-17T09:28:49.383Z,70
2023-09-17T09:30:49.400Z,68
2023-09-17T09:32:49.428Z,69
2023-09-17T09:34:53.186Z,68
2023-09-17T09:36:49.406Z,69
2023-09-17T09:38:52.390Z,70
2023-09-17T09:40:49.391Z,69
2023-09-17T09:42:54.338Z,69
2023-09-17T09:44:49.344Z,70
2023-09-17T09:46:49.444Z,69
2023-09-17T09:48:49.413Z,70
2023-09-17T09:50:52.901Z,70
2023-09-17T09:52:55.662Z,69
2023-09-17T09:54:49.347Z,69
2023-09-17T09:56:53.500Z,69
2023-09-17T09:58:49.730Z,68
2023-09-17T10:00:49.511Z,69
2023-09-17T10:02:49.350Z,68
2023-09-17T10:04:56.054Z,67
2023-09-17T10:06:53.430Z,68
2023-09-17T10:12:53.025Z,67
2023-09-17T10:14:49.400Z,68
2023-09-17T10:16:56.484Z,68
2023-09-17T10:18:54.236Z,68
2023-09-17T10:20:52.386Z,68
2023-09-17T10:22:49.417Z,68
2023-09-17T10:24:49.349Z,68
2023-09-17T10:26:54.793Z,68
2023-09-17T10:30:49.574Z,69
2023-09-17T10:34:49.386Z,69
2023-09-17T10:36:49.393Z,69
2023-09-17T10:38:49.427Z,68
2023-09-17T10:40:49.425Z,68
2023-09-17T10:44:54.430Z,68
2023-09-17T10:46:49.441Z,68
2023-09-17T10:48:51.040Z,68
2023-09-17T10:50:53.698Z,68
2023-09-17T10:52:51.282Z,68
2023-09-17T10:54:49.437Z,69
2023-09-17T10:56:49.372Z,69
2023-09-17T10:58:55.274Z,68
2023-09-17T11:00:51.520Z,68
2023-09-17T11:02:55.371Z,68
2023-09-17T11:04:50.384Z,67
2023-09-17T11:06:56.045Z,66
2023-09-17T11:08:47.856Z,67
2023-09-17T11:10:50.119Z,68
2023-09-17T11:12:49.414Z,66
2023-09-17T11:18:49.875Z,67
2023-09-17T11:20:53.109Z,67
2023-09-17T11:22:49.446Z,67
2023-09-17T11:24:47.885Z,67
2023-09-17T11:26:49.430Z,67
2023-09-17T11:28:49.608Z,67
2023-09-17T11:30:49.417Z,67
2023-09-17T11:32:54.011Z,66
2023-09-17T11:34:50.060Z,66
2023-09-17T11:38:49.600Z,66
2023-09-17T11:40:48.012Z,65
2023-09-17T11:42:49.885Z,66
2023-09-17T11:44:49.457Z,66
2023-09-17T11:48:53.178Z,65
2023-09-17T11:50:49.435Z,67
2023-09-17T11:52:52.910Z,66
2023-09-17T11:54:56.323Z,66
2023-09-17T11:56:49.153Z,65
2023-09-17T11:58:53.298Z,64
2023-09-17T12:02:49.972Z,65
2023-09-17T12:04:52.840Z,65
2023-09-17T12:06:52.428Z,64
2023-09-17T12:08:49.757Z,65
2023-09-17T12:10:50.549Z,65
2023-09-17T12:12:49.404Z,65
2023-09-17T12:14:53.523Z,65
2023-09-17T12:16:49.945Z,65
2023-09-17T12:18:52.713Z,65
2023-09-17T12:20:51.621Z,65
2023-09-17T12:22:49.442Z,64
2023-09-17T12:28:49.863Z,64
2023-09-17T12:30:49.483Z,65
2023-09-17T12:32:51.632Z,63
2023-09-17T12:34:51.036Z,62
2023-09-17T12:38:51.109Z,62
2023-09-17T12:40:53.379Z,63
2023-09-17T12:42:49.412Z,63
2023-09-17T12:46:52.516Z,62
2023-09-17T12:48:49.988Z,62
2023-09-17T12:50:53.160Z,63
2023-09-17T12:52:49.479Z,64
2023-09-17T12:56:53.466Z,63
2023-09-17T13:00:50.743Z,64
2023-09-17T13:02:49.408Z,64
2023-09-17T13:04:53.318Z,64
2023-09-17T13:06:49.773Z,64
2023-09-17T13:08:53.019Z,64
2023-09-17T13:10:49.433Z,64
2023-09-17T13:12:49.433Z,64
2023-09-17T13:16:49.436Z,64
2023-09-17T13:18:49.364Z,64
2023-09-17T13:20:49.385Z,64
2023-09-17T13:22:49.494Z,64
2023-09-17T13:24:49.553Z,65
2023-09-17T13:26:49.432Z,64
2023-09-17T13:28:56.601Z,64
2023-09-17T13:30:51.374Z,64
2023-09-17T13:32:53.078Z,64
2023-09-17T13:36:49.398Z,63
2023-09-17T13:38:50.197Z,61
2023-09-17T13:42:49.681Z,60
2023-09-17T13:44:49.261Z,61
2023-09-17T13:48:49.567Z,63
2023-09-17T13:50:52.709Z,64
2023-09-17T13:52:51.207Z,63
2023-09-17T13:54:51.221Z,63
2023-09-17T13:56:52.476Z,63
2023-09-17T13:58:49.485Z,63
2023-09-17T14:00:51.198Z,63
2023-09-17T14:02:51.126Z,63
2023-09-17T14:04:50.052Z,62
2023-09-17T14:06:54.973Z,63
2023-09-17T14:10:49.458Z,61
2023-09-17T14:12:49.367Z,62
2023-09-17T14:14:50.667Z,61
2023-09-17T14:16:47.963Z,60
2023-09-17T14:18:51.453Z,60
2023-09-17T14:20:49.670Z,59
2023-09-17T14:26:51.387Z,60
2023-09-17T14:28:49.478Z,58
2023-09-17T14:30:51.779Z,58
2023-09-17T14:32:49.489Z,58
2023-09-17T14:34:49.626Z,58
2023-09-17T14:36:49.382Z,57
2023-09-17T14:38:52.391Z,58
2023-09-17T14:40:52.554Z,58
2023-09-17T14:44:49.379Z,59
2023-09-17T14:46:49.477Z,58
2023-09-17T14:48:48.743Z,58
2023-09-17T14:50:51.681Z,58
2023-09-17T14:52:49.514Z,58
2023-09-17T14:54:51.102Z,59
2023-09-17T14:56:49.368Z,59
2023-09-17T14:58:52.691Z,58
2023-09-17T15:00:49.816Z,58
2023-09-17T15:02:49.650Z,58
2023-09-17T15:04:49.451Z,59
2023-09-17T15:08:51.331Z,59
2023-09-17T15:10:49.460Z,59
2023-09-17T15:12:49.493Z,59
2023-09-17T15:14:53.836Z,59
2023-09-17T15:16:52.903Z,59
2023-09-17T15:20:47.997Z,58
2023-09-17T15:22:49.465Z,57
2023-09-17T15:24:49.373Z,57
2023-09-17T15:26:49.443Z,57
2023-09-17T15:28:49.506Z,58
2023-09-17T15:30:49.397Z,58
2023-09-17T15:32:49.491Z,57
2023-09-17T15:36:49.493Z,56
2023-09-17T15:42:58.192Z,56
2023-09-17T15:44:49.739Z,56
2023-09-17T15:46:49.468Z,56
2023-09-17T15:48:49.686Z,57
2023-09-17T15:50:49.448Z,57
2023-09-17T15:52:49.504Z,58
2023-09-17T15:54:49.476Z,58
2023-09-17T15:56:49.465Z,58
2023-09-17T15:58:50.487Z,58
2023-09-17T16:00:49.407Z,58
2023-09-17T16:02:49.550Z,58
2023-09-17T16:04:49.424Z,58
2023-09-17T16:08:51.645Z,59
2023-09-17T16:10:49.522Z,59
2023-09-17T16:12:49.485Z,59
2023-09-17T16:14:52.690Z,59
2023-09-17T16:16:49.744Z,59
2023-09-17T16:18:49.417Z,60
2023-09-17T16:20:49.474Z,60
2023-09-17T16:22:52.651Z,60
2023-09-17T16:24:49.511Z,59
2023-09-17T16:26:49.436Z,60
2023-09-17T16:28:49.452Z,60
2023-09-17T16:30:51.035Z,60
2023-09-17T16:32:49.489Z,61
2023-09-17T16:34:49.393Z,61
2023-09-17T16:36:51.166Z,61
2023-09-17T16:38:56.209Z,61
2023-09-17T16:43:02.266Z,62
2023-09-17T16:44:49.420Z,62
2023-09-17T16:46:59.160Z,62
2023-09-17T16:48:49.369Z,62
2023-09-17T16:50:52.663Z,62
2023-09-17T16:52:49.413Z,63
2023-09-17T16:56:49.393Z,63
2023-09-17T16:58:49.660Z,63
2023-09-17T17:00:49.440Z,63
2023-09-17T17:02:49.497Z,63
2023-09-17T17:04:49.495Z,64
2023-09-17T17:06:52.761Z,64
2023-09-17T17:08:51.400Z,64
2023-09-17T17:10:49.400Z,64
2023-09-17T17:12:51.897Z,64
2023-09-17T17:14:52.620Z,65
2023-09-17T17:16:49.499Z,65
2023-09-17T17:18:54.674Z,65
2023-09-17T17:20:49.396Z,65
2023-09-17T17:22:49.531Z,65
2023-09-17T17:24:49.425Z,65
2023-09-17T17:32:23.823Z,66
2023-09-17T17:34:22.800Z,66
2023-09-17T17:36:22.043Z,66
2023-09-17T17:38:21.840Z,66
2023-09-17T17:40:20.040Z,66
2023-09-17T17:42:18.500Z,66
2023-09-17T17:44:21.869Z,67
2023-09-17T17:46:20.932Z,67
2023-09-17T17:48:21.714Z,67
2023-09-17T17:52:18.874Z,67
2023-09-17T17:54:25.900Z,67
2023-09-17T17:56:23.607Z,67
2023-09-17T17:58:18.657Z,67
2023-09-17T18:00:20.662Z,67
2023-09-17T18:04:19.440Z,67
2023-09-17T18:06:19.608Z,67
2023-09-17T18:10:21.528Z,67
2023-09-17T18:12:18.706Z,67
2023-09-17T18:14:21.242Z,68
2023-09-17T18:16:21.457Z,67
2023-09-17T18:18:21.225Z,67
2023-09-17T18:20:21.696Z,67
2023-09-17T18:22:21.869Z,67
2023-09-17T18:24:18.807Z,67
2023-09-17T18:30:21.735Z,67
2023-09-17T18:32:18.798Z,67
2023-09-17T18:34:20.939Z,68
2023-09-17T18:36:21.762Z,67
2023-09-17T18:38:21.630Z,68
2023-09-17T18:40:21.420Z,69
2023-09-17T18:44:22.062Z,69
2023-09-17T18:46:25.193Z,69
2023-09-17T18:48:19.909Z,69
2023-09-17T18:50:21.710Z,69
2023-09-17T18:52:19.213Z,69
2023-09-17T18:54:19.946Z,70
2023-09-17T19:00:20.537Z,70
2023-09-17T19:02:22.961Z,71
2023-09-17T19:04:21.638Z,71
2023-09-17T19:06:21.993Z,71
2023-09-17T19:08:20.773Z,71
2023-09-17T19:10:21.783Z,72
2023-09-17T19:12:23.734Z,72
2023-09-17T19:14:23.756Z,72
2023-09-17T19:18:21.846Z,72
2023-09-17T19:20:19.096Z,72
2023-09-17T19:22:20.614Z,72
2023-09-17T19:24:21.854Z,72
2023-09-17T19:26:22.204Z,72
2023-09-17T19:28:21.851Z,73
2023-09-17T19:30:25.504Z,72
2023-09-17T19:32:22.070Z,73
2023-09-17T19:34:22.002Z,73
2023-09-17T19:36:21.883Z,72
2023-09-17T19:38:16.700Z,72
2023-09-17T19:40:20.157Z,73
2023-09-17T19:42:21.830Z,72
2023-09-17T19:44:17.460Z,72
2023-09-17T19:46:21.856Z,73
2023-09-17T19:48:21.827Z,73
2023-09-17T19:50:18.848Z,74
2023-09-17T19:52:21.085Z,74
2023-09-17T19:54:21.696Z,73
2023-09-17T19:56:16.980Z,73
2023-09-17T19:58:21.144Z,74
2023-09-17T20:00:22.113Z,74
2023-09-17T20:02:19.594Z,75
2023-09-17T20:04:19.168Z,75
2023-09-17T20:08:20.980Z,76
2023-09-17T20:10:22.071Z,76
2023-09-17T20:12:21.512Z,76
2023-09-17T20:14:21.106Z,76
2023-09-17T20:16:18.899Z,77
2023-09-17T20:18:21.834Z,76
2023-09-17T20:20:20.169Z,77
2023-09-17T20:22:21.057Z,77
2023-09-17T20:24:21.693Z,77
2023-09-17T20:26:20.054Z,77
2023-09-17T20:28:21.539Z,77
2023-09-17T20:30:21.956Z,76
2023-09-17T20:32:19.212Z,77
2023-09-17T20:34:21.354Z,77
2023-09-17T20:36:21.628Z,77
2023-09-17T20:40:19.503Z,77
2023-09-17T20:44:22.295Z,77
2023-09-17T20:46:22.106Z,77
2023-09-17T20:48:21.871Z,77
2023-09-17T20:50:19.666Z,77
2023-09-17T20:52:21.147Z,78
2023-09-17T20:56:20.727Z,78
2023-09-17T20:58:19.695Z,77
2023-09-17T21:00:22.059Z,78
2023-09-17T21:02:18.359Z,78
2023-09-17T21:04:20.117Z,77
2023-09-17T21:06:21.815Z,77
2023-09-17T21:08:19.031Z,77
2023-09-17T21:10:21.072Z,77
2023-09-17T21:12:21.783Z,78
2023-09-17T21:14:20.570Z,77
2023-09-17T21:16:21.037Z,77
2023-09-17T21:18:21.048Z,77
2023-09-17T21:20:21.074Z,78
2023-09-17T21:22:21.119Z,78
2023-09-17T21:26:21.690Z,77
2023-09-17T21:28:21.113Z,77
2023-09-17T21:30:18.830Z,77
2023-09-17T21:38:21.726Z,79
2023-09-17T21:42:19.157Z,79
2023-09-17T21:44:22.017Z,79
2023-09-17T21:46:18.896Z,80
2023-09-17T21:48:21.134Z,79
2023-09-17T21:50:21.830Z,80
2023-09-17T21:52:21.036Z,80
2023-09-17T21:54:23.696Z,80
2023-09-17T21:56:25.489Z,79
2023-09-17T21:58:21.982Z,79
2023-09-17T22:00:21.062Z,79
2023-09-17T22:02:22.150Z,80
2023-09-17T22:04:22.034Z,79
2023-09-17T22:06:21.579Z,80
2023-09-17T22:08:21.750Z,79
2023-09-17T22:10:18.796Z,80
2023-09-17T22:12:19.313Z,80
2023-09-17T22:14:21.775Z,80
2023-09-17T22:16:21.149Z,80
2023-09-17T22:18:20.699Z,80
2023-09-17T22:20:21.825Z,81
2023-09-17T22:22:20.258Z,81
2023-09-17T22:24:18.875Z,81
2023-09-17T22:28:21.995Z,80
2023-09-17T22:30:21.435Z,80
2023-09-17T22:32:21.937Z,81
2023-09-17T22:34:21.126Z,81
2023-09-17T22:36:19.200Z,81
2023-09-17T22:38:21.714Z,81
2023-09-17T22:40:19.234Z,81
2023-09-17T22:42:21.228Z,82
2023-09-17T22:48:20.156Z,82
2023-09-17T22:50:18.853Z,82
2023-09-17T22:52:21.642Z,82
2023-09-17T22:54:21.031Z,83
2023-09-17T22:56:22.141Z,82
2023-09-17T22:58:22.287Z,82
2023-09-17T23:00:18.362Z,82
2023-09-17T23:02:20.880Z,82
2023-09-17T23:04:21.660Z,82
2023-09-17T23:06:22.218Z,83
2023-09-17T23:08:19.624Z,83
2023-09-17T23:10:22.154Z,83
2023-09-17T23:12:19.734Z,83
2023-09-17T23:14:21.104Z,83
2023-09-17T23:20:21.930Z,83
2023-09-17T23:22:22.038Z,83
2023-09-17T23:26:21.680Z,83
2023-09-17T23:28:20.222Z,83
2023-09-17T23:34:21.068Z,83
2023-09-17T23:36:20.925Z,83
2023-09-17T23:40:18.880Z,83
2023-09-17T23:42:20.854Z,83
2023-09-17T23:44:21.804Z,83
2023-09-17T23:46:18.892Z,83
2023-09-17T23:48:20.722Z,83
2023-09-17T23:50:22.245Z,83
2023-09-17T23:52:21.055Z,83
2023-09-17T23:54:22.385Z,84
2023-09-17T23:56:21.994Z,84
2023-09-17T23:58:21.962Z,85
